sensor_id;sensor_type;location;lat;lon;timestamp;P1;durP1;ratioP1;P2;durP2;ratioP2
46457;SDS011;32155;54.076;12.092;2023-02-15T00:02:23;124.07;;;44.17;;
46457;SDS011;32155;54.076;12.092;2023-02-15T00:05:00;129.48;;;43.75;;
46457;SDS011;32155;54.076;12.092;2023-02-15T00:08:19;136.07;;;44.05;;
46457;SDS011;32155;54.076;12.092;2023-02-15T00:10:56;131.80;;;43.65;;
46457;SDS011;32155;54.076;12.092;2023-02-15T00:14:12;124.85;;;42.20;;
46457;SDS011;32155;54.076;12.092;2023-02-15T00:16:49;133.05;;;45.75;;
46457;SDS011;32155;54.076;12.092;2023-02-15T00:22:44;127.63;;;43.70;;
46457;SDS011;32155;54.076;12.092;2023-02-15T00:25:39;136.32;;;44.30;;
46457;SDS011;32155;54.076;12.092;2023-02-15T00:28:16;139.00;;;45.75;;
46457;SDS011;32155;54.076;12.092;2023-02-15T00:30:54;139.80;;;46.92;;
46457;SDS011;32155;54.076;12.092;2023-02-15T00:33:44;142.75;;;46.00;;
46457;SDS011;32155;54.076;12.092;2023-02-15T00:36:19;137.63;;;47.83;;
46457;SDS011;32155;54.076;12.092;2023-02-15T00:38:55;134.93;;;44.80;;
46457;SDS011;32155;54.076;12.092;2023-02-15T00:41:28;150.52;;;47.28;;
46457;SDS011;32155;54.076;12.092;2023-02-15T00:44:05;156.05;;;49.20;;
46457;SDS011;32155;54.076;12.092;2023-02-15T00:46:41;139.05;;;44.97;;
46457;SDS011;32155;54.076;12.092;2023-02-15T00:49:24;144.93;;;48.03;;
46457;SDS011;32155;54.076;12.092;2023-02-15T00:51:58;147.98;;;51.47;;
46457;SDS011;32155;54.076;12.092;2023-02-15T00:54:32;148.85;;;47.90;;
46457;SDS011;32155;54.076;12.092;2023-02-15T00:59:50;154.18;;;49.50;;
46457;SDS011;32155;54.076;12.092;2023-02-15T01:02:57;148.13;;;49.83;;
46457;SDS011;32155;54.076;12.092;2023-02-15T01:05:23;161.73;;;50.45;;
46457;SDS011;32155;54.076;12.092;2023-02-15T01:07:50;153.57;;;49.55;;
46457;SDS011;32155;54.076;12.092;2023-02-15T01:10:16;155.10;;;50.15;;
46457;SDS011;32155;54.076;12.092;2023-02-15T01:12:44;159.40;;;49.38;;
46457;SDS011;32155;54.076;12.092;2023-02-15T01:15:10;152.98;;;50.15;;
46457;SDS011;32155;54.076;12.092;2023-02-15T01:17:35;155.57;;;50.65;;
46457;SDS011;32155;54.076;12.092;2023-02-15T01:20:01;151.25;;;49.88;;
46457;SDS011;32155;54.076;12.092;2023-02-15T01:22:32;153.95;;;49.22;;
46457;SDS011;32155;54.076;12.092;2023-02-15T01:24:58;155.82;;;50.13;;
46457;SDS011;32155;54.076;12.092;2023-02-15T01:27:26;155.52;;;49.45;;
46457;SDS011;32155;54.076;12.092;2023-02-15T01:29:55;157.55;;;50.97;;
46457;SDS011;32155;54.076;12.092;2023-02-15T01:32:21;148.10;;;48.30;;
46457;SDS011;32155;54.076;12.092;2023-02-15T01:34:46;159.90;;;51.58;;
46457;SDS011;32155;54.076;12.092;2023-02-15T01:37:14;153.68;;;49.90;;
46457;SDS011;32155;54.076;12.092;2023-02-15T01:39:40;160.48;;;51.00;;
46457;SDS011;32155;54.076;12.092;2023-02-15T01:42:07;148.02;;;49.47;;
46457;SDS011;32155;54.076;12.092;2023-02-15T01:50:09;154.02;;;49.17;;
46457;SDS011;32155;54.076;12.092;2023-02-15T01:52:36;153.60;;;50.00;;
46457;SDS011;32155;54.076;12.092;2023-02-15T01:55:07;148.70;;;49.45;;
46457;SDS011;32155;54.076;12.092;2023-02-15T01:57:34;150.20;;;50.58;;
46457;SDS011;32155;54.076;12.092;2023-02-15T02:00:00;163.80;;;49.65;;
46457;SDS011;32155;54.076;12.092;2023-02-15T02:02:28;161.05;;;52.60;;
46457;SDS011;32155;54.076;12.092;2023-02-15T02:04:56;165.40;;;50.90;;
46457;SDS011;32155;54.076;12.092;2023-02-15T02:07:26;152.73;;;49.72;;
46457;SDS011;32155;54.076;12.092;2023-02-15T02:09:53;163.07;;;50.65;;
46457;SDS011;32155;54.076;12.092;2023-02-15T02:12:19;161.90;;;49.95;;
46457;SDS011;32155;54.076;12.092;2023-02-15T02:14:50;156.85;;;51.22;;
46457;SDS011;32155;54.076;12.092;2023-02-15T02:20:25;156.13;;;50.30;;
46457;SDS011;32155;54.076;12.092;2023-02-15T02:23:14;153.75;;;49.78;;
46457;SDS011;32155;54.076;12.092;2023-02-15T02:36:12;166.20;;;51.65;;
46457;SDS011;32155;54.076;12.092;2023-02-15T02:48:02;159.65;;;49.30;;
46457;SDS011;32155;54.076;12.092;2023-02-15T02:50:14;158.45;;;50.88;;
46457;SDS011;32155;54.076;12.092;2023-02-15T02:52:46;168.57;;;49.75;;
46457;SDS011;32155;54.076;12.092;2023-02-15T03:00:35;163.60;;;50.40;;
46457;SDS011;32155;54.076;12.092;2023-02-15T03:03:30;174.50;;;53.07;;
46457;SDS011;32155;54.076;12.092;2023-02-15T03:06:37;169.40;;;52.90;;
46457;SDS011;32155;54.076;12.092;2023-02-15T03:09:05;163.27;;;51.22;;
46457;SDS011;32155;54.076;12.092;2023-02-15T03:11:48;179.07;;;54.10;;
46457;SDS011;32155;54.076;12.092;2023-02-15T03:14:15;177.38;;;55.00;;
46457;SDS011;32155;54.076;12.092;2023-02-15T03:16:43;176.20;;;54.40;;
46457;SDS011;32155;54.076;12.092;2023-02-15T03:19:13;174.02;;;55.72;;
46457;SDS011;32155;54.076;12.092;2023-02-15T03:21:51;177.90;;;55.15;;
46457;SDS011;32155;54.076;12.092;2023-02-15T03:24:24;193.70;;;56.08;;
46457;SDS011;32155;54.076;12.092;2023-02-15T03:26:53;185.65;;;55.55;;
46457;SDS011;32155;54.076;12.092;2023-02-15T03:29:21;187.70;;;55.92;;
46457;SDS011;32155;54.076;12.092;2023-02-15T03:31:51;197.18;;;54.58;;
46457;SDS011;32155;54.076;12.092;2023-02-15T03:34:21;196.77;;;56.90;;
46457;SDS011;32155;54.076;12.092;2023-02-15T03:36:52;185.27;;;57.60;;
46457;SDS011;32155;54.076;12.092;2023-02-15T03:45:08;190.32;;;55.92;;
46457;SDS011;32155;54.076;12.092;2023-02-15T03:47:45;197.25;;;57.17;;
46457;SDS011;32155;54.076;12.092;2023-02-15T03:50:21;149.48;;;45.42;;
46457;SDS011;32155;54.076;12.092;2023-02-15T03:53:10;209.48;;;58.08;;
46457;SDS011;32155;54.076;12.092;2023-02-15T03:55:40;198.65;;;56.13;;
46457;SDS011;32155;54.076;12.092;2023-02-15T03:58:06;194.82;;;58.55;;
46457;SDS011;32155;54.076;12.092;2023-02-15T04:01:00;192.80;;;55.20;;
46457;SDS011;32155;54.076;12.092;2023-02-15T04:04:00;198.02;;;57.25;;
46457;SDS011;32155;54.076;12.092;2023-02-15T04:06:32;210.68;;;57.90;;
46457;SDS011;32155;54.076;12.092;2023-02-15T04:08:58;199.48;;;58.22;;
46457;SDS011;32155;54.076;12.092;2023-02-15T04:11:42;205.82;;;58.20;;
46457;SDS011;32155;54.076;12.092;2023-02-15T04:14:08;193.05;;;57.40;;
46457;SDS011;32155;54.076;12.092;2023-02-15T04:17:05;194.20;;;55.47;;
46457;SDS011;32155;54.076;12.092;2023-02-15T04:19:31;210.32;;;58.10;;
46457;SDS011;32155;54.076;12.092;2023-02-15T04:22:16;214.50;;;58.92;;
46457;SDS011;32155;54.076;12.092;2023-02-15T04:25:00;201.60;;;56.13;;
46457;SDS011;32155;54.076;12.092;2023-02-15T04:27:36;202.80;;;56.30;;
46457;SDS011;32155;54.076;12.092;2023-02-15T04:30:04;222.32;;;57.88;;
46457;SDS011;32155;54.076;12.092;2023-02-15T04:32:31;200.52;;;56.95;;
46457;SDS011;32155;54.076;12.092;2023-02-15T04:34:57;204.18;;;55.75;;
46457;SDS011;32155;54.076;12.092;2023-02-15T04:37:25;193.23;;;55.90;;
46457;SDS011;32155;54.076;12.092;2023-02-15T04:39:50;202.23;;;54.97;;
46457;SDS011;32155;54.076;12.092;2023-02-15T04:42:19;185.23;;;53.50;;
46457;SDS011;32155;54.076;12.092;2023-02-15T04:44:47;194.43;;;54.00;;
46457;SDS011;32155;54.076;12.092;2023-02-15T04:47:12;192.00;;;53.80;;
46457;SDS011;32155;54.076;12.092;2023-02-15T04:49:38;177.40;;;52.55;;
46457;SDS011;32155;54.076;12.092;2023-02-15T04:52:04;185.27;;;52.72;;
46457;SDS011;32155;54.076;12.092;2023-02-15T04:54:29;180.55;;;50.70;;
46457;SDS011;32155;54.076;12.092;2023-02-15T04:56:55;177.20;;;52.30;;
46457;SDS011;32155;54.076;12.092;2023-02-15T04:59:21;184.95;;;52.28;;
46457;SDS011;32155;54.076;12.092;2023-02-15T05:01:46;182.70;;;53.47;;
46457;SDS011;32155;54.076;12.092;2023-02-15T05:04:12;182.70;;;52.45;;
46457;SDS011;32155;54.076;12.092;2023-02-15T05:06:37;180.65;;;52.75;;
46457;SDS011;32155;54.076;12.092;2023-02-15T05:09:03;192.75;;;56.35;;
46457;SDS011;32155;54.076;12.092;2023-02-15T05:11:31;199.70;;;55.17;;
46457;SDS011;32155;54.076;12.092;2023-02-15T05:13:56;187.55;;;54.75;;
46457;SDS011;32155;54.076;12.092;2023-02-15T05:16:25;199.82;;;54.83;;
46457;SDS011;32155;54.076;12.092;2023-02-15T05:18:52;201.85;;;56.28;;
46457;SDS011;32155;54.076;12.092;2023-02-15T05:21:20;216.13;;;57.70;;
46457;SDS011;32155;54.076;12.092;2023-02-15T05:23:48;210.52;;;56.78;;
46457;SDS011;32155;54.076;12.092;2023-02-15T05:26:18;199.80;;;54.92;;
46457;SDS011;32155;54.076;12.092;2023-02-15T05:29:04;200.95;;;56.88;;
46457;SDS011;32155;54.076;12.092;2023-02-15T05:31:30;199.30;;;55.78;;
46457;SDS011;32155;54.076;12.092;2023-02-15T05:33:56;217.55;;;56.40;;
46457;SDS011;32155;54.076;12.092;2023-02-15T05:36:22;207.15;;;53.40;;
46457;SDS011;32155;54.076;12.092;2023-02-15T05:38:47;198.60;;;56.17;;
46457;SDS011;32155;54.076;12.092;2023-02-15T05:41:15;217.50;;;58.45;;
46457;SDS011;32155;54.076;12.092;2023-02-15T05:43:41;222.05;;;58.45;;
46457;SDS011;32155;54.076;12.092;2023-02-15T05:46:09;208.18;;;57.63;;
46457;SDS011;32155;54.076;12.092;2023-02-15T05:48:36;205.73;;;58.03;;
46457;SDS011;32155;54.076;12.092;2023-02-15T05:51:08;224.57;;;57.53;;
46457;SDS011;32155;54.076;12.092;2023-02-15T05:53:41;226.82;;;59.70;;
46457;SDS011;32155;54.076;12.092;2023-02-15T05:56:11;211.38;;;58.45;;
46457;SDS011;32155;54.076;12.092;2023-02-15T05:58:38;220.38;;;59.05;;
46457;SDS011;32155;54.076;12.092;2023-02-15T06:01:11;217.10;;;58.45;;
46457;SDS011;32155;54.076;12.092;2023-02-15T06:03:42;204.15;;;55.80;;
46457;SDS011;32155;54.076;12.092;2023-02-15T06:06:08;219.13;;;58.90;;
46457;SDS011;32155;54.076;12.092;2023-02-15T06:08:34;222.20;;;56.97;;
46457;SDS011;32155;54.076;12.092;2023-02-15T06:11:01;223.60;;;57.90;;
46457;SDS011;32155;54.076;12.092;2023-02-15T06:13:29;221.27;;;57.60;;
46457;SDS011;32155;54.076;12.092;2023-02-15T06:15:54;210.60;;;58.70;;
46457;SDS011;32155;54.076;12.092;2023-02-15T06:18:20;217.40;;;56.35;;
46457;SDS011;32155;54.076;12.092;2023-02-15T06:20:46;207.75;;;56.15;;
46457;SDS011;32155;54.076;12.092;2023-02-15T06:23:12;212.15;;;56.67;;
46457;SDS011;32155;54.076;12.092;2023-02-15T06:25:38;202.85;;;56.92;;
46457;SDS011;32155;54.076;12.092;2023-02-15T06:28:04;208.60;;;57.45;;
46457;SDS011;32155;54.076;12.092;2023-02-15T06:30:30;213.07;;;57.38;;
46457;SDS011;32155;54.076;12.092;2023-02-15T06:32:58;202.48;;;54.97;;
46457;SDS011;32155;54.076;12.092;2023-02-15T06:35:24;216.77;;;56.08;;
46457;SDS011;32155;54.076;12.092;2023-02-15T06:37:50;214.00;;;56.40;;
46457;SDS011;32155;54.076;12.092;2023-02-15T06:40:23;225.57;;;57.58;;
46457;SDS011;32155;54.076;12.092;2023-02-15T06:43:08;216.30;;;58.72;;
46457;SDS011;32155;54.076;12.092;2023-02-15T06:45:33;203.23;;;56.63;;
46457;SDS011;32155;54.076;12.092;2023-02-15T06:47:59;224.27;;;58.13;;
46457;SDS011;32155;54.076;12.092;2023-02-15T06:50:25;224.48;;;57.78;;
46457;SDS011;32155;54.076;12.092;2023-02-15T06:52:55;213.23;;;57.15;;
46457;SDS011;32155;54.076;12.092;2023-02-15T06:55:21;204.68;;;54.85;;
46457;SDS011;32155;54.076;12.092;2023-02-15T06:57:47;205.15;;;58.13;;
46457;SDS011;32155;54.076;12.092;2023-02-15T07:03:16;191.98;;;51.50;;
46457;SDS011;32155;54.076;12.092;2023-02-15T07:05:41;207.60;;;56.65;;
46457;SDS011;32155;54.076;12.092;2023-02-15T07:08:08;191.30;;;54.47;;
46457;SDS011;32155;54.076;12.092;2023-02-15T07:10:34;193.35;;;55.13;;
46457;SDS011;32155;54.076;12.092;2023-02-15T07:12:59;183.20;;;51.90;;
46457;SDS011;32155;54.076;12.092;2023-02-15T07:15:25;174.35;;;53.53;;
46457;SDS011;32155;54.076;12.092;2023-02-15T07:17:53;157.35;;;48.45;;
46457;SDS011;32155;54.076;12.092;2023-02-15T07:20:20;150.85;;;49.03;;
46457;SDS011;32155;54.076;12.092;2023-02-15T07:22:47;138.55;;;48.40;;
46457;SDS011;32155;54.076;12.092;2023-02-15T07:25:16;128.02;;;45.70;;
46457;SDS011;32155;54.076;12.092;2023-02-15T07:27:43;111.38;;;44.20;;
46457;SDS011;32155;54.076;12.092;2023-02-15T07:30:11;111.53;;;43.20;;
46457;SDS011;32155;54.076;12.092;2023-02-15T07:32:39;98.10;;;39.33;;
46457;SDS011;32155;54.076;12.092;2023-02-15T07:35:25;86.73;;;38.00;;
46457;SDS011;32155;54.076;12.092;2023-02-15T07:37:53;81.05;;;36.38;;
46457;SDS011;32155;54.076;12.092;2023-02-15T07:40:21;79.20;;;35.78;;
46457;SDS011;32155;54.076;12.092;2023-02-15T07:42:48;62.92;;;32.13;;
46457;SDS011;32155;54.076;12.092;2023-02-15T07:45:16;64.55;;;32.17;;
46457;SDS011;32155;54.076;12.092;2023-02-15T07:47:42;62.17;;;31.52;;
46457;SDS011;32155;54.076;12.092;2023-02-15T07:50:07;68.63;;;32.38;;
46457;SDS011;32155;54.076;12.092;2023-02-15T07:52:33;66.57;;;30.85;;
46457;SDS011;32155;54.076;12.092;2023-02-15T07:54:59;63.42;;;31.15;;
46457;SDS011;32155;54.076;12.092;2023-02-15T07:57:25;69.97;;;32.75;;
46457;SDS011;32155;54.076;12.092;2023-02-15T07:59:52;65.50;;;32.22;;
46457;SDS011;32155;54.076;12.092;2023-02-15T08:02:18;67.75;;;32.58;;
46457;SDS011;32155;54.076;12.092;2023-02-15T08:04:46;63.88;;;31.83;;
46457;SDS011;32155;54.076;12.092;2023-02-15T08:07:15;63.70;;;30.20;;
46457;SDS011;32155;54.076;12.092;2023-02-15T08:09:40;62.47;;;29.25;;
46457;SDS011;32155;54.076;12.092;2023-02-15T08:12:13;56.25;;;29.60;;
46457;SDS011;32155;54.076;12.092;2023-02-15T08:14:39;62.60;;;30.63;;
46457;SDS011;32155;54.076;12.092;2023-02-15T08:17:04;54.15;;;28.80;;
46457;SDS011;32155;54.076;12.092;2023-02-15T08:19:31;56.45;;;30.15;;
46457;SDS011;32155;54.076;12.092;2023-02-15T08:22:01;58.22;;;30.08;;
46457;SDS011;32155;54.076;12.092;2023-02-15T08:24:38;52.78;;;29.08;;
46457;SDS011;32155;54.076;12.092;2023-02-15T08:27:04;54.03;;;28.73;;
46457;SDS011;32155;54.076;12.092;2023-02-15T08:29:32;49.80;;;27.83;;
46457;SDS011;32155;54.076;12.092;2023-02-15T08:32:05;53.15;;;29.60;;
46457;SDS011;32155;54.076;12.092;2023-02-15T08:34:35;50.70;;;28.42;;
46457;SDS011;32155;54.076;12.092;2023-02-15T08:37:05;48.90;;;28.48;;
46457;SDS011;32155;54.076;12.092;2023-02-15T08:39:34;49.90;;;28.23;;
46457;SDS011;32155;54.076;12.092;2023-02-15T08:42:03;50.90;;;29.30;;
46457;SDS011;32155;54.076;12.092;2023-02-15T08:44:29;47.08;;;28.20;;
46457;SDS011;32155;54.076;12.092;2023-02-15T08:46:55;47.25;;;28.08;;
46457;SDS011;32155;54.076;12.092;2023-02-15T08:49:27;53.83;;;30.65;;
46457;SDS011;32155;54.076;12.092;2023-02-15T08:51:53;48.38;;;28.48;;
46457;SDS011;32155;54.076;12.092;2023-02-15T08:54:19;51.67;;;29.02;;
46457;SDS011;32155;54.076;12.092;2023-02-15T08:56:46;55.03;;;31.08;;
46457;SDS011;32155;54.076;12.092;2023-02-15T08:59:16;54.70;;;30.42;;
46457;SDS011;32155;54.076;12.092;2023-02-15T09:01:47;57.85;;;30.98;;
46457;SDS011;32155;54.076;12.092;2023-02-15T09:04:14;53.50;;;29.85;;
46457;SDS011;32155;54.076;12.092;2023-02-15T09:06:41;51.95;;;29.83;;
46457;SDS011;32155;54.076;12.092;2023-02-15T09:09:09;48.35;;;28.30;;
46457;SDS011;32155;54.076;12.092;2023-02-15T09:11:40;59.50;;;32.17;;
46457;SDS011;32155;54.076;12.092;2023-02-15T09:14:08;50.00;;;29.05;;
46457;SDS011;32155;54.076;12.092;2023-02-15T09:16:39;66.40;;;31.92;;
46457;SDS011;32155;54.076;12.092;2023-02-15T09:19:06;74.35;;;32.35;;
46457;SDS011;32155;54.076;12.092;2023-02-15T09:21:36;59.03;;;31.20;;
46457;SDS011;32155;54.076;12.092;2023-02-15T09:24:05;70.55;;;34.40;;
46457;SDS011;32155;54.076;12.092;2023-02-15T09:26:37;63.80;;;33.60;;
46457;SDS011;32155;54.076;12.092;2023-02-15T09:29:07;69.82;;;32.33;;
46457;SDS011;32155;54.076;12.092;2023-02-15T09:34:23;68.20;;;32.92;;
46457;SDS011;32155;54.076;12.092;2023-02-15T09:36:49;92.70;;;34.70;;
46457;SDS011;32155;54.076;12.092;2023-02-15T09:39:26;106.95;;;34.50;;
46457;SDS011;32155;54.076;12.092;2023-02-15T09:58:37;157.10;;;38.67;;
46457;SDS011;32155;54.076;12.092;2023-02-15T10:01:06;124.72;;;37.78;;
46457;SDS011;32155;54.076;12.092;2023-02-15T10:03:58;234.82;;;39.38;;
46457;SDS011;32155;54.076;12.092;2023-02-15T10:11:57;174.68;;;41.47;;
46457;SDS011;32155;54.076;12.092;2023-02-15T10:14:35;186.15;;;43.20;;
46457;SDS011;32155;54.076;12.092;2023-02-15T10:17:30;123.68;;;42.13;;
46457;SDS011;32155;54.076;12.092;2023-02-15T10:31:07;158.63;;;44.80;;
46457;SDS011;32155;54.076;12.092;2023-02-15T10:33:41;143.23;;;45.08;;
46457;SDS011;32155;54.076;12.092;2023-02-15T10:43:54;201.10;;;45.40;;
46457;SDS011;32155;54.076;12.092;2023-02-15T10:46:55;190.02;;;45.78;;
46457;SDS011;32155;54.076;12.092;2023-02-15T11:03:30;245.07;;;52.88;;
46457;SDS011;32155;54.076;12.092;2023-02-15T11:06:14;201.10;;;49.80;;
46457;SDS011;32155;54.076;12.092;2023-02-15T11:08:47;194.85;;;51.13;;
46457;SDS011;32155;54.076;12.092;2023-02-15T11:13:59;209.02;;;51.72;;
46457;SDS011;32155;54.076;12.092;2023-02-15T11:16:36;179.45;;;52.10;;
46457;SDS011;32155;54.076;12.092;2023-02-15T11:19:08;135.73;;;48.47;;
46457;SDS011;32155;54.076;12.092;2023-02-15T11:21:40;150.15;;;48.45;;
46457;SDS011;32155;54.076;12.092;2023-02-15T11:24:16;170.35;;;47.92;;
46457;SDS011;32155;54.076;12.092;2023-02-15T11:36:50;153.85;;;48.97;;
46457;SDS011;32155;54.076;12.092;2023-02-15T11:39:20;132.52;;;48.20;;
46457;SDS011;32155;54.076;12.092;2023-02-15T11:41:47;178.23;;;51.78;;
46457;SDS011;32155;54.076;12.092;2023-02-15T11:44:24;119.07;;;48.65;;
46457;SDS011;32155;54.076;12.092;2023-02-15T11:46:57;133.77;;;47.65;;
46457;SDS011;32155;54.076;12.092;2023-02-15T11:49:26;181.80;;;49.33;;
46457;SDS011;32155;54.076;12.092;2023-02-15T11:51:53;206.50;;;52.97;;
46457;SDS011;32155;54.076;12.092;2023-02-15T11:54:23;159.38;;;51.80;;
46457;SDS011;32155;54.076;12.092;2023-02-15T11:56:58;176.40;;;54.30;;
46457;SDS011;32155;54.076;12.092;2023-02-15T11:59:32;152.57;;;53.42;;
46457;SDS011;32155;54.076;12.092;2023-02-15T12:02:01;170.55;;;53.08;;
46457;SDS011;32155;54.076;12.092;2023-02-15T12:04:32;159.70;;;54.65;;
46457;SDS011;32155;54.076;12.092;2023-02-15T12:09:49;172.52;;;53.90;;
46457;SDS011;32155;54.076;12.092;2023-02-15T12:14:49;156.32;;;56.70;;
46457;SDS011;32155;54.076;12.092;2023-02-15T12:17:37;150.60;;;56.50;;
46457;SDS011;32155;54.076;12.092;2023-02-15T12:22:39;143.80;;;54.70;;
46457;SDS011;32155;54.076;12.092;2023-02-15T12:25:21;148.20;;;53.10;;
46457;SDS011;32155;54.076;12.092;2023-02-15T12:30:51;164.70;;;53.35;;
46457;SDS011;32155;54.076;12.092;2023-02-15T12:36:09;156.73;;;53.17;;
46457;SDS011;32155;54.076;12.092;2023-02-15T12:41:32;152.45;;;54.30;;
46457;SDS011;32155;54.076;12.092;2023-02-15T12:44:06;157.93;;;53.65;;
46457;SDS011;32155;54.076;12.092;2023-02-15T12:46:33;152.07;;;52.45;;
46457;SDS011;32155;54.076;12.092;2023-02-15T12:49:14;151.30;;;53.10;;
46457;SDS011;32155;54.076;12.092;2023-02-15T12:51:44;141.35;;;52.70;;
46457;SDS011;32155;54.076;12.092;2023-02-15T12:54:17;144.50;;;50.53;;
46457;SDS011;32155;54.076;12.092;2023-02-15T12:59:18;145.43;;;48.27;;
46457;SDS011;32155;54.076;12.092;2023-02-15T13:01:45;146.50;;;49.60;;
46457;SDS011;32155;54.076;12.092;2023-02-15T13:07:01;148.82;;;51.67;;
46457;SDS011;32155;54.076;12.092;2023-02-15T13:11:56;143.77;;;50.67;;
46457;SDS011;32155;54.076;12.092;2023-02-15T13:14:34;132.35;;;47.42;;
46457;SDS011;32155;54.076;12.092;2023-02-15T13:17:04;145.25;;;48.10;;
46457;SDS011;32155;54.076;12.092;2023-02-15T13:19:34;135.20;;;48.15;;
46457;SDS011;32155;54.076;12.092;2023-02-15T13:22:14;134.55;;;47.50;;
46457;SDS011;32155;54.076;12.092;2023-02-15T13:24:48;143.25;;;48.75;;
46457;SDS011;32155;54.076;12.092;2023-02-15T13:27:21;143.15;;;48.53;;
46457;SDS011;32155;54.076;12.092;2023-02-15T13:29:56;183.07;;;49.03;;
46457;SDS011;32155;54.076;12.092;2023-02-15T13:34:57;123.60;;;46.38;;
46457;SDS011;32155;54.076;12.092;2023-02-15T13:51:30;140.93;;;49.97;;
46457;SDS011;32155;54.076;12.092;2023-02-15T13:54:11;136.80;;;51.17;;
46457;SDS011;32155;54.076;12.092;2023-02-15T14:10:57;129.98;;;49.63;;
46457;SDS011;32155;54.076;12.092;2023-02-15T14:13:44;129.13;;;50.33;;
46457;SDS011;32155;54.076;12.092;2023-02-15T14:19:21;132.25;;;48.15;;
46457;SDS011;32155;54.076;12.092;2023-02-15T14:21:56;117.85;;;46.22;;
46457;SDS011;32155;54.076;12.092;2023-02-15T14:27:12;119.97;;;44.92;;
46457;SDS011;32155;54.076;12.092;2023-02-15T14:29:57;122.05;;;45.90;;
46457;SDS011;32155;54.076;12.092;2023-02-15T14:32:34;113.68;;;45.97;;
46457;SDS011;32155;54.076;12.092;2023-02-15T14:35:12;111.07;;;47.08;;
46457;SDS011;32155;54.076;12.092;2023-02-15T14:37:55;114.90;;;44.88;;
46457;SDS011;32155;54.076;12.092;2023-02-15T14:49:10;111.22;;;46.05;;
46457;SDS011;32155;54.076;12.092;2023-02-15T14:54:09;113.70;;;46.40;;
46457;SDS011;32155;54.076;12.092;2023-02-15T14:56:37;131.05;;;47.65;;
46457;SDS011;32155;54.076;12.092;2023-02-15T15:02:18;127.05;;;47.25;;
46457;SDS011;32155;54.076;12.092;2023-02-15T15:05:07;127.50;;;47.08;;
46457;SDS011;32155;54.076;12.092;2023-02-15T15:07:43;125.13;;;47.95;;
46457;SDS011;32155;54.076;12.092;2023-02-15T15:12:47;126.72;;;46.45;;
46457;SDS011;32155;54.076;12.092;2023-02-15T15:17:57;117.88;;;45.58;;
46457;SDS011;32155;54.076;12.092;2023-02-15T15:22:50;116.13;;;44.67;;
46457;SDS011;32155;54.076;12.092;2023-02-15T15:41:42;114.00;;;44.80;;
46457;SDS011;32155;54.076;12.092;2023-02-15T15:50:23;122.18;;;44.53;;
46457;SDS011;32155;54.076;12.092;2023-02-15T15:52:54;122.95;;;44.80;;
46457;SDS011;32155;54.076;12.092;2023-02-15T15:55:23;128.80;;;46.95;;
46457;SDS011;32155;54.076;12.092;2023-02-15T15:57:55;128.55;;;46.05;;
46457;SDS011;32155;54.076;12.092;2023-02-15T16:03:02;135.23;;;48.10;;
46457;SDS011;32155;54.076;12.092;2023-02-15T16:05:38;123.30;;;46.10;;
46457;SDS011;32155;54.076;12.092;2023-02-15T16:10:32;130.27;;;46.92;;
46457;SDS011;32155;54.076;12.092;2023-02-15T16:12:59;117.43;;;45.15;;
46457;SDS011;32155;54.076;12.092;2023-02-15T16:15:36;131.98;;;48.58;;
46457;SDS011;32155;54.076;12.092;2023-02-15T16:18:17;136.15;;;47.90;;
46457;SDS011;32155;54.076;12.092;2023-02-15T16:20:52;129.90;;;48.53;;
46457;SDS011;32155;54.076;12.092;2023-02-15T16:28:49;127.57;;;46.38;;
46457;SDS011;32155;54.076;12.092;2023-02-15T16:31:16;126.55;;;46.70;;
46457;SDS011;32155;54.076;12.092;2023-02-15T16:33:43;135.65;;;48.58;;
46457;SDS011;32155;54.076;12.092;2023-02-15T16:36:10;137.32;;;50.42;;
46457;SDS011;32155;54.076;12.092;2023-02-15T16:43:39;138.95;;;48.20;;
46457;SDS011;32155;54.076;12.092;2023-02-15T16:46:10;144.60;;;49.50;;
46457;SDS011;32155;54.076;12.092;2023-02-15T16:48:39;148.43;;;49.88;;
46457;SDS011;32155;54.076;12.092;2023-02-15T16:51:13;136.02;;;50.53;;
46457;SDS011;32155;54.076;12.092;2023-02-15T16:53:46;155.30;;;50.63;;
46457;SDS011;32155;54.076;12.092;2023-02-15T16:56:26;141.82;;;52.60;;
46457;SDS011;32155;54.076;12.092;2023-02-15T16:58:55;142.43;;;51.90;;
46457;SDS011;32155;54.076;12.092;2023-02-15T17:01:25;149.90;;;52.00;;
46457;SDS011;32155;54.076;12.092;2023-02-15T17:09:52;226.43;;;56.45;;
46457;SDS011;32155;54.076;12.092;2023-02-15T17:15:34;157.38;;;53.53;;
46457;SDS011;32155;54.076;12.092;2023-02-15T17:20:43;150.18;;;51.25;;
46457;SDS011;32155;54.076;12.092;2023-02-15T17:23:22;185.98;;;55.47;;
46457;SDS011;32155;54.076;12.092;2023-02-15T17:25:58;202.20;;;54.55;;
46457;SDS011;32155;54.076;12.092;2023-02-15T17:28:27;175.65;;;55.65;;
46457;SDS011;32155;54.076;12.092;2023-02-15T17:30:55;169.35;;;57.05;;
46457;SDS011;32155;54.076;12.092;2023-02-15T17:33:25;196.40;;;57.55;;
46457;SDS011;32155;54.076;12.092;2023-02-15T17:38:30;192.70;;;54.15;;
46457;SDS011;32155;54.076;12.092;2023-02-15T17:40:57;203.77;;;58.55;;
46457;SDS011;32155;54.076;12.092;2023-02-15T17:43:24;165.50;;;59.42;;
46457;SDS011;32155;54.076;12.092;2023-02-15T17:45:52;218.68;;;57.80;;
46457;SDS011;32155;54.076;12.092;2023-02-15T17:48:21;303.00;;;59.05;;
46457;SDS011;32155;54.076;12.092;2023-02-15T17:51:01;308.35;;;62.95;;
46457;SDS011;32155;54.076;12.092;2023-02-15T17:53:29;380.48;;;62.42;;
46457;SDS011;32155;54.076;12.092;2023-02-15T17:55:56;262.60;;;55.65;;
46457;SDS011;32155;54.076;12.092;2023-02-15T17:58:22;252.52;;;57.60;;
46457;SDS011;32155;54.076;12.092;2023-02-15T18:00:49;200.77;;;55.70;;
46457;SDS011;32155;54.076;12.092;2023-02-15T18:06:36;382.08;;;57.03;;
46457;SDS011;32155;54.076;12.092;2023-02-15T18:09:23;538.03;;;57.40;;
46457;SDS011;32155;54.076;12.092;2023-02-15T18:15:19;317.45;;;57.58;;
46457;SDS011;32155;54.076;12.092;2023-02-15T18:17:45;350.52;;;57.40;;
46457;SDS011;32155;54.076;12.092;2023-02-15T18:20:19;251.45;;;53.45;;
46457;SDS011;32155;54.076;12.092;2023-02-15T18:25:16;330.95;;;54.15;;
46457;SDS011;32155;54.076;12.092;2023-02-15T18:27:43;349.50;;;55.40;;
46457;SDS011;32155;54.076;12.092;2023-02-15T18:30:16;376.00;;;54.25;;
46457;SDS011;32155;54.076;12.092;2023-02-15T18:32:46;356.23;;;56.15;;
46457;SDS011;32155;54.076;12.092;2023-02-15T18:35:20;374.60;;;58.22;;
46457;SDS011;32155;54.076;12.092;2023-02-15T18:37:48;383.38;;;57.67;;
46457;SDS011;32155;54.076;12.092;2023-02-15T18:40:20;518.72;;;56.92;;
46457;SDS011;32155;54.076;12.092;2023-02-15T18:42:52;387.03;;;54.67;;
46457;SDS011;32155;54.076;12.092;2023-02-15T18:45:28;292.15;;;55.08;;
46457;SDS011;32155;54.076;12.092;2023-02-15T18:47:56;392.17;;;55.42;;